Time;durP1;ratioP1;P1;durP2;ratioP2;P2;SDS_P1;SDS_P2;PMS_P1;PMS_P2;Temp;Humidity;BMP_temperature;BMP_pressure;BME280_temperature;BME280_humidity;BME280_pressure;Samples;Min_cycle;Max_cycle;Signal;HPM_P1;HPM_P2
2023/04/23 00:00:33;;;;;;;;;;;;;;;18.73;72.76;100939.72;7398418;19;1292;-54
2023/04/23 00:03:08;;;;;;;;;;;;;;;18.83;72.73;100943.38;7399953;19;1317;-54
2023/04/23 00:05:37;;;;;;;;;;;;;;;18.73;72.66;100942.41;7397310;19;2071;-53
2023/04/23 00:08:05;;;;;;;;;;;;;;;18.72;72.91;100933.53;7398423;19;1534;-53
2023/04/23 00:10:37;;;;;;;;;;;;;;;18.65;72.71;100932.34;7398016;19;1551;-53
2023/04/23 00:13:05;;;;;;;;;;;;;;;18.69;73.04;100973.97;7398976;19;1333;-53
2023/04/23 00:15:34;;;;;;;;;;;;;;;18.71;73.05;100928.31;7397926;19;1538;-53
2023/04/23 00:18:02;;;;;;;;;;;;;;;18.71;72.85;100936.34;7397712;19;1865;-53
2023/04/23 00:20:31;;;;;;;;;;;;;;;18.72;72.90;100929.97;7399114;19;1448;-53
2023/04/23 00:22:59;;;;;;;;;;;;;;;18.72;72.47;100936.22;7398401;19;1515;-54
2023/04/23 00:25:27;;;;;;;;;;;;;;;18.62;72.79;100925.41;7398139;19;1289;-52
2023/04/23 00:27:58;;;;;;;;;;;;;;;18.69;72.78;100931.09;7397526;19;1836;-53
2023/04/23 00:30:26;;;;;;;;;;;;;;;18.62;73.16;100935.25;7398659;19;1595;-54
2023/04/23 00:32:55;;;;;;;;;;;;;;;18.58;73.22;100926.66;7398323;19;1339;-53
2023/04/23 00:35:23;;;;;;;;;;;;;;;18.61;72.95;100937.09;7397751;19;1935;-53
2023/04/23 00:37:51;;;;;;;;;;;;;;;18.65;73.00;100927.81;7397767;19;1859;-54
2023/04/23 00:40:20;;;;;;;;;;;;;;;18.60;73.27;100932.72;7397283;19;1645;-53
2023/04/23 00:42:51;;;;;;;;;;;;;;;18.58;73.03;100932.03;7397794;19;1565;-53
2023/04/23 00:45:22;;;;;;;;;;;;;;;18.54;73.11;100935.91;7397884;19;1499;-53
2023/04/23 00:47:51;;;;;;;;;;;;;;;18.62;72.72;100938.81;7398018;19;1629;-53
2023/04/23 00:50:19;;;;;;;;;;;;;;;18.74;72.45;100930.69;7397258;19;1285;-54
2023/04/23 00:52:48;;;;;;;;;;;;;;;18.70;72.48;100959.56;7397792;19;1439;-53
2023/04/23 00:55:19;;;;;;;;;;;;;;;18.62;72.84;100976.31;7397957;19;1420;-53
2023/04/23 00:57:48;;;;;;;;;;;;;;;18.68;72.64;100940.97;7396313;19;1849;-53
2023/04/23 01:00:17;;;;;;;;;;;;;;;18.62;72.70;100933.47;7398767;19;1229;-53
2023/04/23 01:02:49;;;;;;;;;;;;;;;18.63;72.79;100932.47;7397607;19;1429;-53
2023/04/23 01:05:19;;;;;;;;;;;;;;;18.67;72.61;100911.63;7396762;19;1218;-54
2023/04/23 01:07:48;;;;;;;;;;;;;;;18.71;72.49;100922.94;7397111;19;1558;-53
2023/04/23 01:10:16;;;;;;;;;;;;;;;18.68;72.43;100919.53;7396566;19;1542;-55
2023/04/23 01:12:45;;;;;;;;;;;;;;;18.63;72.62;100919.06;7395029;19;1500;-53
2023/04/23 01:15:13;;;;;;;;;;;;;;;18.63;72.45;100920.91;7397472;19;1578;-54
2023/04/23 01:17:41;;;;;;;;;;;;;;;18.58;72.49;100917.75;7397445;19;1859;-53
2023/04/23 01:20:13;;;;;;;;;;;;;;;18.63;72.38;100908.34;7396180;19;1547;-53
2023/04/23 01:22:44;;;;;;;;;;;;;;;18.59;72.54;100935.53;7396096;19;1435;-53
2023/04/23 01:25:13;;;;;;;;;;;;;;;18.57;72.43;100927.63;7397775;19;1562;-54
2023/04/23 01:27:42;;;;;;;;;;;;;;;18.65;71.97;100941.22;7395603;19;1853;-53
2023/04/23 01:30:11;;;;;;;;;;;;;;;18.63;72.21;100921.75;7397099;19;1241;-54
2023/04/23 01:32:40;;;;;;;;;;;;;;;18.59;72.18;100917.63;7397015;19;1915;-53
2023/04/23 01:35:09;;;;;;;;;;;;;;;18.60;72.19;100930.06;7396003;19;1269;-53
2023/04/23 01:37:39;;;;;;;;;;;;;;;18.55;72.52;100923.38;7396387;19;1871;-53
2023/04/23 01:40:11;;;;;;;;;;;;;;;18.59;71.98;100935.53;7395619;19;1514;-53
2023/04/23 01:42:40;;;;;;;;;;;;;;;18.53;72.51;100931.53;7396646;19;1230;-53
2023/04/23 01:45:09;;;;;;;;;;;;;;;18.66;72.59;100929.53;7395887;19;1193;-54
2023/04/23 01:47:38;;;;;;;;;;;;;;;19.27;70.98;100930.66;7396071;19;1221;-54
2023/04/23 01:50:07;;;;;;;;;;;;;;;19.68;69.60;100926.19;7395053;19;1186;-54
2023/04/23 01:52:35;;;;;;;;;;;;;;;19.98;68.78;100930.66;7395551;19;1589;-53
2023/04/23 01:55:03;;;;;;;;;;;;;;;19.78;69.49;100924.41;7395916;19;1590;-54
2023/04/23 01:57:34;;;;;;;;;;;;;;;19.75;69.78;100931.88;7395438;19;1479;-54
2023/04/23 02:00:07;;;;;;;;;;;;;;;19.86;69.44;100932.59;7395055;19;1939;-53
2023/04/23 02:02:35;;;;;;;;;;;;;;;19.94;69.25;100917.66;7395984;19;1234;-54
2023/04/23 02:05:05;;;;;;;;;;;;;;;19.93;69.20;100929.38;7395654;19;1534;-54
2023/04/23 02:07:33;;;;;;;;;;;;;;;19.98;69.33;100936.03;7395249;19;1265;-53
2023/04/23 02:10:03;;;;;;;;;;;;;;;19.99;69.25;100936.88;7395788;19;1849;-54
2023/04/23 02:12:34;;;;;;;;;;;;;;;19.98;69.32;100938.72;7396489;19;1222;-54
2023/04/23 02:15:02;;;;;;;;;;;;;;;20.05;69.21;100931.81;7395906;19;1449;-54
2023/04/23 02:17:31;;;;;;;;;;;;;;;19.99;69.24;100937.72;7395067;19;1546;-54
2023/04/23 02:19:59;;;;;;;;;;;;;;;19.97;69.38;100937.00;7393414;19;1841;-53
2023/04/23 02:22:27;;;;;;;;;;;;;;;20.11;68.88;100937.59;7395018;19;1588;-54
2023/04/23 02:24:57;;;;;;;;;;;;;;;20.09;69.13;100931.53;7402864;19;1499;-53
2023/04/23 02:27:25;;;;;;;;;;;;;;;20.10;69.11;100943.97;7399921;19;1203;-53
2023/04/23 02:29:56;;;;;;;;;;;;;;;20.21;68.79;100941.16;7402750;19;1381;-53
2023/04/23 02:32:25;;;;;;;;;;;;;;;20.23;68.57;100942.72;7401192;19;1319;-53
2023/04/23 02:34:53;;;;;;;;;;;;;;;20.27;68.48;100940.59;7401070;19;1230;-53
2023/04/23 02:37:21;;;;;;;;;;;;;;;20.32;68.36;100932.13;7401924;19;1170;-54
2023/04/23 02:39:50;;;;;;;;;;;;;;;20.23;68.56;100945.41;7400017;19;1858;-53
2023/04/23 02:42:18;;;;;;;;;;;;;;;20.22;68.74;100958.97;7402292;19;1233;-53
2023/04/23 02:44:46;;;;;;;;;;;;;;;20.33;68.33;100939.19;7401927;19;1194;-53
2023/04/23 02:47:17;;;;;;;;;;;;;;;20.30;68.51;100944.84;7402327;19;1578;-54
2023/04/23 02:49:45;;;;;;;;;;;;;;;20.41;68.05;100947.38;7401596;19;1621;-53
2023/04/23 02:52:14;;;;;;;;;;;;;;;20.36;68.18;100944.28;7401641;19;1542;-53
2023/04/23 02:54:42;;;;;;;;;;;;;;;20.35;68.15;100947.94;7402025;19;1653;-53
2023/04/23 02:57:13;;;;;;;;;;;;;;;20.29;68.14;100951.19;7401438;19;1495;-54
2023/04/23 02:59:41;;;;;;;;;;;;;;;20.22;68.46;100943.72;7399180;19;1836;-52
2023/04/23 03:02:09;;;;;;;;;;;;;;;20.22;68.37;100950.91;7402681;19;1111;-53
2023/04/23 03:04:40;;;;;;;;;;;;;;;20.26;68.35;100958.53;7400074;19;1214;-53
2023/04/23 03:07:09;;;;;;;;;;;;;;;20.23;68.41;100955.28;7401220;19;1526;-53
2023/04/23 03:09:37;;;;;;;;;;;;;;;20.21;68.46;100951.88;7401857;19;1609;-53
2023/04/23 03:12:05;;;;;;;;;;;;;;;20.25;68.47;100966.72;7400045;19;1365;-54
2023/04/23 03:14:34;;;;;;;;;;;;;;;20.20;68.57;100967.16;7400618;19;1242;-53
2023/04/23 03:17:02;;;;;;;;;;;;;;;20.19;68.42;100965.47;7401265;19;1836;-54
2023/04/23 03:19:30;;;;;;;;;;;;;;;20.22;68.34;100970.56;7400022;19;1854;-53
2023/04/23 03:22:04;;;;;;;;;;;;;;;20.19;68.51;100957.44;7400015;19;1597;-53
2023/04/23 03:24:33;;;;;;;;;;;;;;;20.27;68.11;100971.00;7400932;19;1527;-53
2023/04/23 03:27:01;;;;;;;;;;;;;;;20.25;68.39;100959.56;7399439;19;1520;-54
2023/04/23 03:29:29;;;;;;;;;;;;;;;20.20;68.34;100967.16;7400546;19;1210;-53
2023/04/23 03:31:58;;;;;;;;;;;;;;;20.18;68.54;100963.75;7400584;19;1594;-54
2023/04/23 03:34:26;;;;;;;;;;;;;;;20.17;68.53;100955.84;7398418;19;1590;-54
2023/04/23 03:36:54;;;;;;;;;;;;;;;20.22;68.29;100973.25;7400129;19;1955;-53
2023/04/23 03:39:25;;;;;;;;;;;;;;;20.22;68.38;100964.34;7400283;19;1846;-53
2023/04/23 03:41:53;;;;;;;;;;;;;;;20.20;68.32;100983.28;7400183;19;1526;-54
2023/04/23 03:44:21;;;;;;;;;;;;;;;20.19;68.37;100981.59;7399808;19;1198;-54
2023/04/23 03:46:51;;;;;;;;;;;;;;;20.25;67.99;100974.78;7399803;19;1531;-53
2023/04/23 03:49:19;;;;;;;;;;;;;;;20.21;68.32;100979.63;7399322;19;1621;-53
2023/04/23 03:51:47;;;;;;;;;;;;;;;20.24;68.19;100984.69;7399734;19;1257;-54
2023/04/23 03:54:15;;;;;;;;;;;;;;;20.26;68.22;100979.19;7400350;19;1543;-53
2023/04/23 03:56:46;;;;;;;;;;;;;;;20.29;68.02;100986.13;7400068;19;1495;-53
2023/04/23 03:59:15;;;;;;;;;;;;;;;20.29;67.86;100983.44;7397990;19;1852;-54
2023/04/23 04:01:44;;;;;;;;;;;;;;;20.05;68.75;100992.69;7400464;19;1225;-54
2023/04/23 04:04:12;;;;;;;;;;;;;;;20.05;68.80;101004.31;7400009;19;1324;-54
2023/04/23 04:06:41;;;;;;;;;;;;;;;19.91;68.58;101003.81;7399379;19;1625;-53
2023/04/23 04:09:09;;;;;;;;;;;;;;;19.73;69.22;101007.13;7397483;19;1305;-54
2023/04/23 04:11:38;;;;;;;;;;;;;;;19.71;69.21;101003.72;7398843;19;1260;-54
2023/04/23 04:14:09;;;;;;;;;;;;;;;19.56;69.72;101018.47;7397780;19;1544;-53
2023/04/23 04:16:37;;;;;;;;;;;;;;;19.57;69.49;101026.34;7397733;19;1516;-53
2023/04/23 04:19:05;;;;;;;;;;;;;;;19.57;69.37;101018.31;7396644;19;1878;-53
2023/04/23 04:21:33;;;;;;;;;;;;;;;19.58;69.28;101025.41;7398479;19;1502;-53
2023/04/23 04:24:03;;;;;;;;;;;;;;;19.46;69.39;101013.88;7398152;19;1515;-53
2023/04/23 04:26:31;;;;;;;;;;;;;;;19.52;69.41;101019.69;7396554;19;1500;-54
2023/04/23 04:29:00;;;;;;;;;;;;;;;19.39;70.13;101034.16;7399748;19;1212;-54
2023/04/23 04:31:31;;;;;;;;;;;;;;;19.95;68.38;101015.97;7397777;19;1851;-53
2023/04/23 04:33:59;;;;;;;;;;;;;;;20.37;66.86;101031.91;7396975;19;1459;-53
2023/04/23 04:36:28;;;;;;;;;;;;;;;20.41;66.91;101022.59;7395696;19;1424;-53
2023/04/23 04:38:57;;;;;;;;;;;;;;;20.56;66.33;101026.59;7397484;19;1859;-53
2023/04/23 04:41:26;;;;;;;;;;;;;;;20.41;66.63;101038.72;7397096;19;1508;-53
2023/04/23 04:43:54;;;;;;;;;;;;;;;20.16;67.30;101030.19;7397257;19;1495;-53
2023/04/23 04:46:25;;;;;;;;;;;;;;;20.10;67.37;101020.00;7394564;19;1455;-54
2023/04/23 04:48:56;;;;;;;;;;;;;;;19.80;68.76;101016.34;7396040;19;1530;-53
2023/04/23 04:51:25;;;;;;;;;;;;;;;20.14;68.14;101026.78;7396272;19;1510;-52
2023/04/23 04:53:53;;;;;;;;;;;;;;;20.50;67.34;101037.91;7396615;19;1250;-53
2023/04/23 04:56:22;;;;;;;;;;;;;;;20.38;67.57;101028.25;7397114;19;1488;-53
2023/04/23 04:58:51;;;;;;;;;;;;;;;20.26;67.84;101014.94;7397115;19;1954;-52
2023/04/23 05:01:19;;;;;;;;;;;;;;;20.08;68.68;101032.72;7397721;19;1141;-53
2023/04/23 05:03:48;;;;;;;;;;;;;;;20.09;68.75;101018.28;7397247;19;1534;-53
2023/04/23 05:06:19;;;;;;;;;;;;;;;20.05;68.78;101020.41;7396915;19;1139;-54
2023/04/23 05:08:48;;;;;;;;;;;;;;;19.96;69.24;101028.44;7396575;19;1856;-53
2023/04/23 05:11:16;;;;;;;;;;;;;;;19.95;69.06;101035.59;7395199;19;1668;-53
2023/04/23 05:13:45;;;;;;;;;;;;;;;19.88;69.24;101028.25;7392420;19;1266;-53
2023/04/23 05:16:13;;;;;;;;;;;;;;;20.17;68.40;101025.66;7395266;19;1535;-52
2023/04/23 05:18:42;;;;;;;;;;;;;;;20.55;67.30;101046.41;7395550;19;1851;-53
2023/04/23 05:21:10;;;;;;;;;;;;;;;20.48;67.45;101031.81;7395297;19;1224;-52
2023/04/23 05:23:41;;;;;;;;;;;;;;;20.21;67.94;101017.22;7396549;19;1206;-53
2023/04/23 05:26:09;;;;;;;;;;;;;;;20.11;68.61;101021.69;7395281;19;1488;-49
2023/04/23 05:28:38;;;;;;;;;;;;;;;20.05;68.68;101033.84;7396424;19;1214;-52
2023/04/23 05:31:06;;;;;;;;;;;;;;;20.38;67.77;101020.22;7395714;19;1198;-52
2023/04/23 05:33:34;;;;;;;;;;;;;;;20.35;62.42;101017.78;7396863;19;1653;-53
2023/04/23 05:36:03;;;;;;;;;;;;;;;20.14;64.74;101009.84;7396931;19;1227;-53
2023/04/23 05:38:32;;;;;;;;;;;;;;;20.13;64.13;101034.97;7396909;19;1538;-53
2023/04/23 05:41:02;;;;;;;;;;;;;;;20.01;64.32;101015.44;7394329;19;1846;-54
2023/04/23 05:43:31;;;;;;;;;;;;;;;20.14;64.70;101026.78;7397078;19;1555;-54
2023/04/23 05:45:59;;;;;;;;;;;;;;;20.48;64.25;101018.38;7395434;19;1491;-53
2023/04/23 05:48:27;;;;;;;;;;;;;;;20.48;63.96;101028.28;7395833;19;1416;-53
2023/04/23 05:50:56;;;;;;;;;;;;;;;20.26;65.00;101020.31;7395302;19;1938;-54
2023/04/23 05:53:24;;;;;;;;;;;;;;;20.17;65.77;101039.06;7394865;19;1539;-52
2023/04/23 05:55:52;;;;;;;;;;;;;;;20.02;66.07;101025.19;7394157;19;1499;-52
2023/04/23 05:58:23;;;;;;;;;;;;;;;20.21;66.10;101033.31;7397096;19;1527;-53
2023/04/23 06:00:52;;;;;;;;;;;;;;;20.54;65.30;101027.72;7400043;19;1860;-53
2023/04/23 06:03:20;;;;;;;;;;;;;;;20.45;65.35;101024.03;7404440;19;1257;-53
2023/04/23 06:05:49;;;;;;;;;;;;;;;20.27;65.86;101031.91;7402586;19;1189;-54
2023/04/23 06:08:19;;;;;;;;;;;;;;;20.08;66.36;101011.22;7402949;19;1191;-53
2023/04/23 06:10:47;;;;;;;;;;;;;;;20.09;66.94;101017.44;7403422;19;1555;-50
2023/04/23 06:13:16;;;;;;;;;;;;;;;20.18;67.03;101020.16;7403014;19;1183;-53
2023/04/23 06:15:47;;;;;;;;;;;;;;;20.73;65.57;101027.78;7403323;19;1183;-50
2023/04/23 06:18:15;;;;;;;;;;;;;;;20.57;65.72;101031.00;7403122;19;1558;-50
2023/04/23 06:20:43;;;;;;;;;;;;;;;20.41;66.47;101022.59;7401738;19;1853;-52
2023/04/23 06:23:12;;;;;;;;;;;;;;;20.29;67.08;101023.72;7403672;19;1175;-52
2023/04/23 06:25:40;;;;;;;;;;;;;;;20.16;67.49;101022.13;7401045;19;1777;-53
2023/04/23 06:28:09;;;;;;;;;;;;;;;20.12;67.88;101028.75;7399515;19;1273;-51
2023/04/23 06:30:37;;;;;;;;;;;;;;;20.53;66.67;101018.81;7403587;19;1439;-52
2023/04/23 06:33:08;;;;;;;;;;;;;;;20.69;66.03;101014.75;7404284;19;1209;-54
2023/04/23 06:35:36;;;;;;;;;;;;;;;20.51;66.73;101012.72;7402784;19;1926;-53
2023/04/23 06:38:05;;;;;;;;;;;;;;;20.34;67.24;101008.03;7401948;19;1617;-52
2023/04/23 06:40:33;;;;;;;;;;;;;;;20.20;67.92;101014.66;7401496;19;1867;-52
2023/04/23 06:43:03;;;;;;;;;;;;;;;20.17;68.06;101014.91;7403048;19;1221;-52
2023/04/23 06:45:32;;;;;;;;;;;;;;;20.25;67.91;101018.63;7401260;19;1452;-53
2023/04/23 06:48:00;;;;;;;;;;;;;;;20.57;67.00;101020.25;7401625;19;1502;-53
2023/04/23 06:50:31;;;;;;;;;;;;;;;20.61;67.05;101021.69;7402194;19;1610;-53
2023/04/23 06:52:59;;;;;;;;;;;;;;;20.45;67.46;101014.16;7398984;19;1276;-53
2023/04/23 06:55:28;;;;;;;;;;;;;;;20.33;67.83;101025.13;7400281;19;1483;-53
2023/04/23 06:57:56;;;;;;;;;;;;;;;20.21;68.28;101011.84;7400641;19;1799;-53
2023/04/23 07:00:24;;;;;;;;;;;;;;;20.15;68.56;101022.25;7400383;19;1848;-53
2023/04/23 07:02:53;;;;;;;;;;;;;;;20.50;67.66;101010.19;7402050;19;1279;-51
2023/04/23 07:05:21;;;;;;;;;;;;;;;20.92;66.52;101016.16;7400516;19;1226;-53
2023/04/23 07:07:52;;;;;;;;;;;;;;;20.64;67.40;101015.19;7400442;19;1470;-53
2023/04/23 07:10:20;;;;;;;;;;;;;;;20.41;67.76;101010.03;7398570;19;1254;-53
2023/04/23 07:12:49;;;;;;;;;;;;;;;20.32;68.05;101012.72;7399274;19;1531;-53
2023/04/23 07:15:18;;;;;;;;;;;;;;;20.21;68.28;101014.53;7397778;19;1373;-53
2023/04/23 07:17:46;;;;;;;;;;;;;;;20.13;68.44;101010.81;7399949;19;1651;-54
2023/04/23 07:20:14;;;;;;;;;;;;;;;20.60;67.41;101022.66;7398845;19;1854;-52
2023/04/23 07:22:43;;;;;;;;;;;;;;;20.79;66.89;101004.84;7400656;19;1451;-53
2023/04/23 07:25:14;;;;;;;;;;;;;;;20.58;68.02;101019.25;7399292;19;1472;-53
2023/04/23 07:27:42;;;;;;;;;;;;;;;20.33;68.50;101009.00;7398075;19;1513;-52
2023/04/23 07:30:11;;;;;;;;;;;;;;;20.19;68.66;101003.06;7399100;19;1611;-52
2023/04/23 07:32:39;;;;;;;;;;;;;;;20.21;69.08;101000.22;7399251;19;1297;-53
2023/04/23 07:35:09;;;;;;;;;;;;;;;20.25;68.01;101012.38;7399369;19;1571;-52
2023/04/23 07:37:38;;;;;;;;;;;;;;;20.37;67.91;101003.25;7399986;19;1594;-51
2023/04/23 07:40:07;;;;;;;;;;;;;;;20.27;68.46;101008.59;7394904;19;1859;-52
2023/04/23 07:42:38;;;;;;;;;;;;;;;20.17;67.80;101004.19;7396726;19;1576;-52
2023/04/23 07:45:07;;;;;;;;;;;;;;;20.09;68.28;101009.38;7396040;19;1549;-52
2023/04/23 07:47:35;;;;;;;;;;;;;;;20.04;68.39;100999.06;7395278;19;1546;-52
2023/04/23 07:50:04;;;;;;;;;;;;;;;19.96;68.96;101001.59;7395826;19;1480;-52
2023/04/23 07:52:32;;;;;;;;;;;;;;;19.91;69.13;101001.13;7396131;19;1146;-52
2023/04/23 07:55:00;;;;;;;;;;;;;;;19.85;69.18;100999.84;7394946;19;1194;-53
2023/04/23 07:57:29;;;;;;;;;;;;;;;19.82;69.55;101000.97;7395416;19;1598;-52
2023/04/23 08:00:00;;;;;;;;;;;;;;;19.77;69.47;100997.81;7395065;19;1850;-52
2023/04/23 08:02:28;;;;;;;;;;;;;;;19.84;69.43;100999.00;7396253;19;1227;-52
2023/04/23 08:04:56;;;;;;;;;;;;;;;19.85;69.31;100992.63;7394800;19;1223;-52
2023/04/23 08:07:24;;;;;;;;;;;;;;;19.94;69.19;101008.94;7393221;19;1585;-52
2023/04/23 08:09:53;;;;;;;;;;;;;;;19.94;69.02;101008.94;7397490;19;1530;-52
2023/04/23 08:12:21;;;;;;;;;;;;;;;19.99;68.77;100985.19;7399824;19;1633;-52
2023/04/23 08:14:49;;;;;;;;;;;;;;;19.93;68.88;100986.59;7398191;19;1214;-52
2023/04/23 08:17:20;;;;;;;;;;;;;;;19.88;69.16;100988.84;7399004;19;1624;-52
2023/04/23 08:19:48;;;;;;;;;;;;;;;19.35;69.41;100903.16;7398507;19;1858;-52
2023/04/23 08:22:17;;;;;;;;;;;;;;;19.84;69.30;100987.41;7398852;19;1090;-52
2023/04/23 08:24:46;;;;;;;;;;;;;;;19.80;69.46;100975.25;7399575;19;1602;-52
2023/04/23 08:27:14;;;;;;;;;;;;;;;19.77;69.54;100980.88;7396758;19;1206;-52
2023/04/23 08:29:42;;;;;;;;;;;;;;;19.76;69.65;100981.88;7398851;19;1606;-52
2023/04/23 08:32:11;;;;;;;;;;;;;;;19.75;69.61;100994.41;7398911;19;1542;-52
2023/04/23 08:34:42;;;;;;;;;;;;;;;19.67;69.79;100986.16;7399537;19;1285;-52
2023/04/23 08:37:10;;;;;;;;;;;;;;;19.70;69.71;100990.44;7398517;19;1709;-52
2023/04/23 08:39:40;;;;;;;;;;;;;;;19.69;69.69;100989.56;7397901;19;1522;-52
2023/04/23 08:42:13;;;;;;;;;;;;;;;19.64;69.73;100983.78;7396866;19;1841;-52
2023/04/23 08:44:43;;;;;;;;;;;;;;;19.61;70.20;100984.03;7397603;19;1171;-52
2023/04/23 08:47:13;;;;;;;;;;;;;;;19.57;69.97;100980.75;7397402;19;1467;-52
2023/04/23 08:49:47;;;;;;;;;;;;;;;19.57;69.97;100961.97;7398495;19;1491;-52
2023/04/23 08:52:18;;;;;;;;;;;;;;;19.61;69.97;100976.81;7398546;19;1518;-52
2023/04/23 08:54:48;;;;;;;;;;;;;;;19.64;69.84;100981.09;7398405;19;1617;-52
2023/04/23 08:57:18;;;;;;;;;;;;;;;19.70;69.99;100990.44;7397725;19;1339;-52
2023/04/23 08:59:46;;;;;;;;;;;;;;;19.56;69.94;100971.03;7398896;19;1034;-52
2023/04/23 09:02:15;;;;;;;;;;;;;;;19.53;70.38;100962.38;7396104;19;1863;-52
2023/04/23 09:04:46;;;;;;;;;;;;;;;19.53;70.36;100967.75;7398069;19;1546;-52
2023/04/23 09:07:17;;;;;;;;;;;;;;;19.55;70.25;100968.47;7397782;19;1542;-52
2023/04/23 09:09:45;;;;;;;;;;;;;;;19.58;70.08;100970.91;7397509;19;1546;-52
2023/04/23 09:12:14;;;;;;;;;;;;;;;19.54;70.15;100958.75;7395905;19;1523;-52
2023/04/23 09:14:42;;;;;;;;;;;;;;;19.56;70.18;100951.41;7397458;19;1231;-52
2023/04/23 09:17:10;;;;;;;;;;;;;;;19.75;69.56;100967.59;7397206;19;1566;-52
2023/04/23 09:19:41;;;;;;;;;;;;;;;19.72;69.47;100945.56;7397931;19;1033;-52
2023/04/23 09:22:09;;;;;;;;;;;;;;;19.62;69.81;100958.91;7395561;19;1845;-52
2023/04/23 09:24:43;;;;;;;;;;;;;;;19.80;69.33;100951.94;7396866;19;1908;-52
2023/04/23 09:27:11;;;;;;;;;;;;;;;19.81;69.33;100968.88;7394823;19;1491;-52
2023/04/23 09:29:39;;;;;;;;;;;;;;;19.90;69.04;100961.88;7397001;19;1629;-52
2023/04/23 09:32:09;;;;;;;;;;;;;;;19.97;68.66;100950.44;7396262;19;1468;-52
2023/04/23 09:34:38;;;;;;;;;;;;;;;19.92;68.74;100957.22;7396331;19;1522;-52
2023/04/23 09:37:09;;;;;;;;;;;;;;;19.86;68.80;100943.34;7396645;19;1559;-52
2023/04/23 09:39:40;;;;;;;;;;;;;;;19.93;68.73;100950.84;7397587;19;1332;-52
2023/04/23 09:42:11;;;;;;;;;;;;;;;19.95;68.64;100951.56;7394651;19;1850;-52
2023/04/23 09:44:39;;;;;;;;;;;;;;;19.97;68.40;100938.84;7396825;19;1475;-52
2023/04/23 09:47:08;;;;;;;;;;;;;;;19.94;68.51;100948.03;7396180;19;1584;-52
2023/04/23 09:49:46;;;;;;;;;;;;;;;19.93;68.78;100950.84;7395993;19;1577;-52
2023/04/23 09:52:15;;;;;;;;;;;;;;;19.94;68.39;100933.78;7396786;19;1159;-52
2023/04/23 09:54:46;;;;;;;;;;;;;;;19.95;68.55;100940.81;7397074;19;1496;-53
2023/04/23 09:57:14;;;;;;;;;;;;;;;19.88;68.60;100943.22;7397057;19;1542;-52
2023/04/23 09:59:43;;;;;;;;;;;;;;;19.90;68.46;100932.34;7396140;19;1249;-52
2023/04/23 10:02:12;;;;;;;;;;;;;;;19.90;68.45;100926.97;7395644;19;1857;-52
2023/04/23 10:04:40;;;;;;;;;;;;;;;19.90;68.46;100926.97;7396637;19;1585;-52
2023/04/23 10:07:12;;;;;;;;;;;;;;;19.67;69.23;100932.50;7396372;19;1277;-52
2023/04/23 10:09:41;;;;;;;;;;;;;;;19.43;69.84;100922.13;7396286;19;1530;-52
2023/04/23 10:12:12;;;;;;;;;;;;;;;19.34;70.23;100928.28;7396653;19;1598;-52
2023/04/23 10:14:41;;;;;;;;;;;;;;;19.31;70.61;100928.56;7395897;19;1633;-52
2023/04/23 10:17:10;;;;;;;;;;;;;;;19.39;70.26;100929.56;7396283;19;1598;-52
2023/04/23 10:19:39;;;;;;;;;;;;;;;19.31;70.47;100916.00;7395246;19;1242;-52
2023/04/23 10:22:10;;;;;;;;;;;;;;;19.30;70.47;100917.00;7394073;19;1858;-52
2023/04/23 10:24:40;;;;;;;;;;;;;;;19.28;70.64;100924.31;7396039;19;1605;-52
2023/04/23 10:27:13;;;;;;;;;;;;;;;19.28;70.62;100916.28;7394096;19;1266;-52
2023/04/23 10:29:43;;;;;;;;;;;;;;;19.28;70.51;100917.13;7395965;19;1479;-52
2023/04/23 10:32:12;;;;;;;;;;;;;;;19.30;70.50;100900.91;7396467;19;1146;-52
2023/04/23 10:34:41;;;;;;;;;;;;;;;19.27;70.51;100899.31;7395841;19;1464;-52
2023/04/23 10:37:10;;;;;;;;;;;;;;;19.22;70.75;100898.88;7394804;19;1265;-52
2023/04/23 10:39:39;;;;;;;;;;;;;;;19.22;70.96;100906.09;7396110;19;1510;-52
2023/04/23 10:42:08;;;;;;;;;;;;;;;19.17;70.76;100882.34;7394436;19;1839;-52
2023/04/23 10:44:39;;;;;;;;;;;;;;;19.21;70.84;100888.28;7399227;19;1455;-52
2023/04/23 10:47:08;;;;;;;;;;;;;;;19.36;70.50;100886.09;7402633;19;1530;-52
2023/04/23 10:49:36;;;;;;;;;;;;;;;19.43;70.04;100890.78;7402557;19;1028;-52
2023/04/23 10:52:05;;;;;;;;;;;;;;;19.57;69.62;100880.66;7401940;19;1912;-52
2023/04/23 10:54:35;;;;;;;;;;;;;;;19.45;69.96;100902.22;7402300;19;1502;-52
2023/04/23 10:57:04;;;;;;;;;;;;;;;19.52;69.59;100874.84;7401690;19;1594;-52
2023/04/23 10:59:33;;;;;;;;;;;;;;;19.47;70.01;100875.25;7402560;19;1528;-52
2023/04/23 11:02:08;;;;;;;;;;;;;;;19.64;69.15;100869.25;7401022;19;1845;-52
2023/04/23 11:04:36;;;;;;;;;;;;;;;19.70;69.08;100873.22;7401105;19;1238;-51
2023/04/23 11:07:08;;;;;;;;;;;;;;;19.60;69.37;100875.88;7401763;19;1547;-52
2023/04/23 11:09:41;;;;;;;;;;;;;;;19.34;70.24;100858.56;7401931;19;1483;-52
2023/04/23 11:12:10;;;;;;;;;;;;;;;19.26;70.62;100867.31;7401250;19;1463;-52
2023/04/23 11:14:43;;;;;;;;;;;;;;;19.24;70.69;100854.03;7401993;19;1464;-52
2023/04/23 11:17:16;;;;;;;;;;;;;;;19.21;70.84;100864.16;7402058;19;1293;-52
2023/04/23 11:20:05;;;;;;;;;;;;;;;19.18;71.03;100867.09;7401760;19;1115;-52
2023/04/23 11:22:35;;;;;;;;;;;;;;;19.16;70.90;100863.69;7399209;19;1859;-52
2023/04/23 11:25:05;;;;;;;;;;;;;;;19.18;71.03;100856.38;7402349;19;1052;-52
2023/04/23 11:27:33;;;;;;;;;;;;;;;19.14;70.83;100853.13;7399846;19;1127;-52
2023/04/23 11:30:02;;;;;;;;;;;;;;;19.12;71.03;100835.47;7400790;19;1578;-52
2023/04/23 11:32:34;;;;;;;;;;;;;;;19.14;71.02;100849.59;7400340;19;1341;-52
2023/04/23 11:35:04;;;;;;;;;;;;;;;19.32;70.42;100856.03;7401255;19;1493;-51
2023/04/23 11:37:32;;;;;;;;;;;;;;;19.55;69.63;100863.88;7400302;19;1131;-52
2023/04/23 11:40:09;;;;;;;;;;;;;;;19.64;69.23;100831.69;7400559;19;1554;-52
2023/04/23 11:42:42;;;;;;;;;;;;;;;19.71;69.06;100845.44;7399044;19;1861;-52
2023/04/23 11:45:16;;;;;;;;;;;;;;;19.77;68.83;100844.88;7400716;19;1542;-51
2023/04/23 11:47:48;;;;;;;;;;;;;;;19.84;68.43;100832.59;7400740;19;1567;-51
2023/04/23 11:50:19;;;;;;;;;;;;;;;19.68;69.24;100834.97;7400753;19;1424;-52
2023/04/23 11:52:48;;;;;;;;;;;;;;;19.79;68.75;100840.22;7400078;19;1613;-52
2023/04/23 11:55:16;;;;;;;;;;;;;;;19.69;68.97;100833.97;7400148;19;1519;-52
2023/04/23 11:57:45;;;;;;;;;;;;;;;19.75;69.04;100821.84;7400985;19;1187;-52
2023/04/23 12:00:15;;;;;;;;;;;;;;;19.79;68.85;100820.59;7401573;19;1017;-51
2023/04/23 12:02:54;;;;;;;;;;;;;;;19.65;69.21;100822.66;7398192;19;1859;-52
2023/04/23 12:05:24;;;;;;;;;;;;;;;19.80;68.84;100824.97;7399535;19;1272;-52
2023/04/23 12:07:53;;;;;;;;;;;;;;;19.89;68.60;100823.28;7400041;19;1542;-52
2023/04/23 12:10:21;;;;;;;;;;;;;;;19.89;68.35;100823.28;7399170;19;1545;-52
2023/04/23 12:12:53;;;;;;;;;;;;;;;19.92;68.29;100817.66;7399349;19;1471;-52
2023/04/23 12:15:22;;;;;;;;;;;;;;;19.88;68.18;100806.34;7399410;19;1468;-52
2023/04/23 12:18:09;;;;;;;;;;;;;;;19.85;68.41;100807.44;7399232;19;1155;-52
2023/04/23 12:20:39;;;;;;;;;;;;;;;19.92;68.36;100806.91;7398775;19;1273;-52
2023/04/23 12:23:08;;;;;;;;;;;;;;;19.79;68.51;100796.44;7397805;19;1843;-52
2023/04/23 12:25:36;;;;;;;;;;;;;;;19.83;68.46;100792.50;7399211;19;1321;-52
2023/04/23 12:28:05;;;;;;;;;;;;;;;19.72;68.70;100784.59;7398478;19;1275;-51
2023/04/23 12:30:35;;;;;;;;;;;;;;;19.47;69.67;100782.22;7399215;19;1617;-52
2023/04/23 12:33:08;;;;;;;;;;;;;;;19.30;70.17;100779.38;7399106;19;1265;-51
2023/04/23 12:35:39;;;;;;;;;;;;;;;19.23;70.38;100768.38;7399690;19;1194;-52
2023/04/23 12:38:08;;;;;;;;;;;;;;;19.25;70.34;100777.13;7399353;19;1538;-52
2023/04/23 12:40:36;;;;;;;;;;;;;;;19.23;70.38;100779.09;7398823;19;1297;-52
2023/04/23 12:43:04;;;;;;;;;;;;;;;19.48;69.87;100772.38;7396718;19;1841;-52
2023/04/23 12:45:38;;;;;;;;;;;;;;;19.69;69.02;100761.50;7398109;19;1162;-52
2023/04/23 12:48:09;;;;;;;;;;;;;;;19.90;68.25;100760.59;7398786;19;1577;-52
2023/04/23 12:50:38;;;;;;;;;;;;;;;19.76;68.63;100767.22;7397216;19;1197;-52
2023/04/23 12:53:06;;;;;;;;;;;;;;;19.70;68.61;100757.88;7398181;19;1487;-52
2023/04/23 12:55:35;;;;;;;;;;;;;;;19.74;68.52;100762.00;7398448;19;1277;-52
2023/04/23 12:58:03;;;;;;;;;;;;;;;19.87;68.10;100748.28;7398560;19;1523;-52